GRZ523 Details

Departure: Eareckson Air Station (PASY)
Arrival: Ted Stevens Anchorage International Airport (PANC) at N/A
Route: SYA G8 ADK G1 ELF G12 HBT G2 RWO ODK AMOTT4
Notes:


Current Weather Information
PASY 231255Z 29007KT 7SM SCT040 OVC065 03/M00 A3000 RMK AO2A SLP162 T00281001 RVRNO $
PANC 231353Z 31005KT 10SM SCT050 OVC060 04/01 A2928 RMK AO2 SLP917 T00390011